createdAt,value
2018-06-17T00:00:05.759Z,0
2018-06-17T00:01:07.118Z,0
2018-06-17T00:02:08.480Z,0
2018-06-17T00:03:09.852Z,0
2018-06-17T00:04:11.208Z,0
2018-06-17T00:05:12.570Z,0
2018-06-17T00:06:13.943Z,0
2018-06-17T00:07:15.300Z,0
2018-06-17T00:08:16.679Z,0
2018-06-17T00:09:18.035Z,0
2018-06-17T00:10:19.393Z,0
2018-06-17T00:11:20.754Z,0
2018-06-17T00:12:22.110Z,0
2018-06-17T00:13:23.478Z,0
2018-06-17T00:14:24.849Z,0
2018-06-17T00:15:26.214Z,0
2018-06-17T00:16:27.594Z,0
2018-06-17T00:17:28.958Z,0
2018-06-17T00:18:30.331Z,0
2018-06-17T00:19:31.688Z,0
2018-06-17T00:20:33.051Z,0
2018-06-17T00:21:34.412Z,0
2018-06-17T00:22:35.792Z,0
2018-06-17T00:23:37.170Z,0
2018-06-17T00:24:38.522Z,0
2018-06-17T00:25:39.881Z,0
2018-06-17T00:26:41.245Z,0
2018-06-17T00:27:42.614Z,0
2018-06-17T00:28:43.968Z,0
2018-06-17T00:29:45.337Z,0
2018-06-17T00:30:46.703Z,0
2018-06-17T00:31:48.064Z,0
2018-06-17T00:32:49.419Z,0
2018-06-17T00:33:50.794Z,0
2018-06-17T00:34:52.159Z,0
2018-06-17T00:35:53.524Z,0
2018-06-17T00:36:54.884Z,0
2018-06-17T00:37:56.255Z,0
2018-06-17T00:38:57.614Z,0
2018-06-17T00:39:58.982Z,0
2018-06-17T00:41:00.347Z,0
2018-06-17T00:42:01.719Z,0
2018-06-17T00:43:03.084Z,0
2018-06-17T00:44:04.453Z,0
2018-06-17T00:45:05.818Z,0
2018-06-17T00:46:07.229Z,0
2018-06-17T00:47:08.553Z,0
2018-06-17T00:48:09.925Z,0
2018-06-17T00:49:11.285Z,0
2018-06-17T00:50:12.650Z,0
2018-06-17T00:51:14.033Z,0
2018-06-17T00:52:15.463Z,0
2018-06-17T00:53:16.834Z,0
2018-06-17T00:54:18.202Z,0
2018-06-17T00:55:19.558Z,0
2018-06-17T00:56:20.927Z,0
2018-06-17T00:57:22.295Z,0
2018-06-17T00:58:23.673Z,0
2018-06-17T00:59:25.030Z,0
2018-06-17T01:00:26.400Z,0
2018-06-17T01:01:28.325Z,0
2018-06-17T01:02:29.680Z,0
2018-06-17T01:03:31.055Z,0
2018-06-17T01:04:32.414Z,0
2018-06-17T01:05:33.783Z,0
2018-06-17T01:06:35.152Z,0
2018-06-17T01:07:36.511Z,0
2018-06-17T01:08:37.869Z,0
2018-06-17T01:09:39.224Z,0
2018-06-17T01:10:40.588Z,0
2018-06-17T01:11:41.963Z,0
2018-06-17T01:12:43.323Z,0
2018-06-17T01:13:44.684Z,0
2018-06-17T01:14:46.049Z,0
2018-06-17T01:15:47.404Z,0
2018-06-17T01:16:48.774Z,0
2018-06-17T01:17:50.131Z,0
2018-06-17T01:18:51.569Z,0
2018-06-17T01:19:52.878Z,0
2018-06-17T01:20:54.229Z,0
2018-06-17T01:21:55.599Z,0
2018-06-17T01:22:56.959Z,0
2018-06-17T01:23:58.879Z,0
2018-06-17T01:25:00.250Z,0
2018-06-17T01:26:01.621Z,0
2018-06-17T01:27:02.979Z,0
2018-06-17T01:28:04.355Z,0
2018-06-17T01:29:05.716Z,0
2018-06-17T01:30:07.075Z,0
2018-06-17T01:31:08.434Z,0
2018-06-17T01:32:09.790Z,0
2018-06-17T01:33:11.154Z,0
2018-06-17T01:34:12.514Z,0
2018-06-17T01:35:13.878Z,0
2018-06-17T01:36:15.245Z,0
2018-06-17T01:37:16.606Z,0
2018-06-17T01:38:17.984Z,0
2018-06-17T01:39:19.344Z,0
2018-06-17T01:40:20.715Z,0
2018-06-17T01:41:22.074Z,0
2018-06-17T01:42:23.444Z,0
2018-06-17T01:43:24.810Z,0
2018-06-17T01:44:26.180Z,0
2018-06-17T01:45:27.544Z,0
2018-06-17T01:46:28.910Z,0
2018-06-17T01:47:30.279Z,0
2018-06-17T01:48:31.646Z,0
2018-06-17T01:49:33.003Z,0
2018-06-17T01:50:34.386Z,0
2018-06-17T01:51:35.725Z,0
2018-06-17T01:52:37.095Z,0
2018-06-17T01:53:38.440Z,0
2018-06-17T01:54:39.806Z,0
2018-06-17T01:55:41.170Z,0
2018-06-17T01:56:42.541Z,0
2018-06-17T01:57:43.896Z,0
2018-06-17T01:58:45.254Z,0
2018-06-17T01:59:46.614Z,0
2018-06-17T02:00:47.983Z,0
2018-06-17T02:01:49.335Z,0
2018-06-17T02:02:50.699Z,0
2018-06-17T02:03:52.066Z,0
2018-06-17T02:04:53.433Z,0
2018-06-17T02:05:54.793Z,0
2018-06-17T02:06:56.158Z,0
2018-06-17T02:07:57.515Z,0
2018-06-17T02:08:58.899Z,0
2018-06-17T02:10:00.268Z,0
2018-06-17T02:11:01.629Z,0
2018-06-17T02:12:03.004Z,0
2018-06-17T02:13:04.364Z,0
2018-06-17T02:14:05.720Z,0
2018-06-17T02:15:07.079Z,0
2018-06-17T02:16:08.440Z,0
2018-06-17T02:17:09.800Z,0
2018-06-17T02:18:11.165Z,0
2018-06-17T02:19:12.539Z,0
2018-06-17T02:20:13.901Z,0
2018-06-17T02:21:15.259Z,0
2018-06-17T02:22:16.629Z,0
2018-06-17T02:23:17.989Z,0
2018-06-17T02:24:19.350Z,0
2018-06-17T02:25:20.711Z,0
2018-06-17T02:26:22.201Z,0
2018-06-17T02:27:23.565Z,0
2018-06-17T02:28:24.931Z,0
2018-06-17T02:29:26.285Z,0
2018-06-17T02:30:27.640Z,0
2018-06-17T02:31:29.009Z,0
2018-06-17T02:32:30.371Z,0
2018-06-17T02:33:31.727Z,0
2018-06-17T02:34:33.089Z,0
2018-06-17T02:35:34.452Z,0
2018-06-17T02:36:35.816Z,0
2018-06-17T02:37:37.192Z,4
2018-06-17T02:38:38.556Z,4
2018-06-17T02:39:39.922Z,4
2018-06-17T02:40:41.281Z,4
2018-06-17T02:41:42.642Z,4
2018-06-17T02:42:44.011Z,4
2018-06-17T02:43:45.378Z,4
2018-06-17T02:44:46.730Z,0
2018-06-17T02:45:48.101Z,0
2018-06-17T02:46:49.470Z,4
2018-06-17T02:47:50.831Z,4
2018-06-17T02:48:52.191Z,4
2018-06-17T02:49:53.547Z,4
2018-06-17T02:50:54.917Z,4
2018-06-17T02:51:56.285Z,8
2018-06-17T02:52:58.370Z,12
2018-06-17T02:53:59.736Z,12
2018-06-17T02:55:01.105Z,16
2018-06-17T02:56:02.465Z,16
2018-06-17T02:57:03.838Z,20
2018-06-17T02:58:05.206Z,24
2018-06-17T02:59:06.580Z,28
2018-06-17T03:00:07.944Z,32
2018-06-17T03:01:09.314Z,32
2018-06-17T03:02:10.675Z,40
2018-06-17T03:03:12.038Z,40
2018-06-17T03:04:13.401Z,48
2018-06-17T03:05:14.775Z,56
2018-06-17T03:06:16.150Z,60
2018-06-17T03:07:17.530Z,68
2018-06-17T03:08:18.895Z,76
2018-06-17T03:09:20.265Z,84
2018-06-17T03:10:21.624Z,100
2018-06-17T03:11:23.000Z,116
2018-06-17T03:12:24.350Z,140
2018-06-17T03:13:25.730Z,164
2018-06-17T03:14:27.111Z,184
2018-06-17T03:15:29.184Z,208
2018-06-17T03:16:30.560Z,240
2018-06-17T03:17:31.926Z,268
2018-06-17T03:18:33.292Z,300
2018-06-17T03:19:34.659Z,336
2018-06-17T03:20:36.026Z,372
2018-06-17T03:21:37.387Z,408
2018-06-17T03:22:38.772Z,436
2018-06-17T03:23:40.133Z,476
2018-06-17T03:24:41.541Z,512
2018-06-17T03:25:42.854Z,548
2018-06-17T03:26:44.222Z,584
2018-06-17T03:27:45.603Z,624
2018-06-17T03:28:46.970Z,668
2018-06-17T03:29:48.330Z,716
2018-06-17T03:30:49.715Z,764
2018-06-17T03:31:51.081Z,812
2018-06-17T03:32:52.453Z,868
2018-06-17T03:33:53.816Z,920
2018-06-17T03:34:55.196Z,972
2018-06-17T03:35:56.561Z,1024
2018-06-17T03:36:58.908Z,1076
2018-06-17T03:38:00.290Z,1124
2018-06-17T03:39:01.661Z,1164
2018-06-17T03:40:03.021Z,1208
2018-06-17T03:41:04.382Z,1264
2018-06-17T03:42:05.751Z,1324
2018-06-17T03:43:07.127Z,1396
2018-06-17T03:44:08.510Z,1468
2018-06-17T03:45:09.881Z,1532
2018-06-17T03:46:11.230Z,1592
2018-06-17T03:47:12.596Z,1628
2018-06-17T03:48:13.976Z,1644
2018-06-17T03:49:15.346Z,1672
2018-06-17T03:50:16.711Z,1708
2018-06-17T03:51:18.072Z,1768
2018-06-17T03:52:19.436Z,1836
2018-06-17T03:53:20.806Z,1896
2018-06-17T03:54:22.172Z,1968
2018-06-17T03:55:23.538Z,2040
2018-06-17T03:56:24.906Z,2060
2018-06-17T03:57:26.266Z,2108
2018-06-17T03:58:28.306Z,2164
2018-06-17T03:59:28.972Z,2224
2018-06-17T04:00:30.368Z,2312
2018-06-17T04:01:31.726Z,2384
2018-06-17T04:02:33.094Z,2480
2018-06-17T04:03:34.466Z,2580
2018-06-17T04:04:35.836Z,2656
2018-06-17T04:05:37.212Z,2664
2018-06-17T04:06:38.574Z,2680
2018-06-17T04:07:39.933Z,2676
2018-06-17T04:08:41.296Z,2708
2018-06-17T04:09:42.671Z,2772
2018-06-17T04:10:44.037Z,2836
2018-06-17T04:11:45.403Z,2924
2018-06-17T04:12:46.768Z,2988
2018-06-17T04:13:48.131Z,3044
2018-06-17T04:14:49.502Z,3120
2018-06-17T04:15:50.881Z,3228
2018-06-17T04:16:52.255Z,3300
2018-06-17T04:17:53.640Z,3356
2018-06-17T04:18:54.996Z,3448
2018-06-17T04:19:56.371Z,3524
2018-06-17T04:20:57.738Z,3644
2018-06-17T04:21:59.116Z,3744
2018-06-17T04:23:00.481Z,3848
2018-06-17T04:24:01.859Z,3916
2018-06-17T04:25:03.226Z,3932
2018-06-17T04:26:04.592Z,3920
2018-06-17T04:27:05.962Z,3972
2018-06-17T04:28:07.348Z,4048
2018-06-17T04:29:08.717Z,4180
2018-06-17T04:30:10.079Z,4348
2018-06-17T04:31:11.461Z,4600
2018-06-17T04:32:12.831Z,4900
2018-06-17T04:33:14.196Z,5252
2018-06-17T04:34:15.567Z,5508
2018-06-17T04:35:16.931Z,5672
2018-06-17T04:36:18.292Z,5784
2018-06-17T04:37:19.666Z,5776
2018-06-17T04:38:21.051Z,5776
2018-06-17T04:39:22.420Z,5736
2018-06-17T04:40:23.781Z,5740
2018-06-17T04:41:25.148Z,5744
2018-06-17T04:42:26.516Z,5808
2018-06-17T04:43:27.901Z,5920
2018-06-17T04:44:29.251Z,6052
2018-06-17T04:45:30.621Z,6192
2018-06-17T04:46:31.991Z,6348
2018-06-17T04:47:33.353Z,6548
2018-06-17T04:48:34.727Z,6868
2018-06-17T04:49:36.086Z,7332
2018-06-17T04:50:37.457Z,7876
2018-06-17T04:51:38.821Z,8556
2018-06-17T04:52:40.187Z,9428
2018-06-17T04:53:41.567Z,10388
2018-06-17T04:54:42.931Z,11004
2018-06-17T04:55:44.299Z,11260
2018-06-17T04:56:45.672Z,10964
2018-06-17T04:57:47.046Z,10404
2018-06-17T04:58:48.428Z,10176
2018-06-17T04:59:49.798Z,10608
2018-06-17T05:00:51.166Z,10964
2018-06-17T05:01:52.532Z,10864
2018-06-17T05:02:53.893Z,11152
2018-06-17T05:03:55.264Z,12040
2018-06-17T05:04:56.654Z,13248
2018-06-17T05:05:58.048Z,14316
2018-06-17T05:06:59.422Z,15104
2018-06-17T05:08:00.797Z,15208
2018-06-17T05:09:02.232Z,14944
2018-06-17T05:10:03.620Z,14252
2018-06-17T05:11:04.976Z,12816
2018-06-17T05:12:06.347Z,10900
2018-06-17T05:13:07.729Z,10536
2018-06-17T05:14:09.098Z,10088
2018-06-17T05:15:10.467Z,10336
2018-06-17T05:16:11.843Z,10668
2018-06-17T05:17:13.276Z,10548
2018-06-17T05:18:14.589Z,9664
2018-06-17T05:19:15.957Z,9324
2018-06-17T05:20:17.327Z,8856
2018-06-17T05:21:18.703Z,8568
2018-06-17T05:22:20.068Z,8440
2018-06-17T05:23:21.440Z,8764
2018-06-17T05:24:22.803Z,9496
2018-06-17T05:25:24.174Z,10764
2018-06-17T05:26:25.547Z,12212
2018-06-17T05:27:26.912Z,13372
2018-06-17T05:28:28.334Z,14692
2018-06-17T05:29:29.722Z,16088
2018-06-17T05:30:31.087Z,16764
2018-06-17T05:31:32.459Z,16308
2018-06-17T05:32:33.817Z,14872
2018-06-17T05:33:35.190Z,13664
2018-06-17T05:34:36.575Z,13300
2018-06-17T05:35:37.948Z,13780
2018-06-17T05:36:39.394Z,13172
2018-06-17T05:37:40.768Z,13852
2018-06-17T05:38:42.137Z,14924
2018-06-17T05:39:43.534Z,15100
2018-06-17T05:40:44.922Z,15160
2018-06-17T05:41:46.294Z,15068
2018-06-17T05:42:47.670Z,13232
2018-06-17T05:43:49.039Z,13872
2018-06-17T05:44:50.419Z,14192
2018-06-17T05:45:51.799Z,13084
2018-06-17T05:46:53.169Z,13764
2018-06-17T05:47:54.548Z,13308
2018-06-17T05:48:55.920Z,14020
2018-06-17T05:49:57.300Z,14212
2018-06-17T05:50:59.507Z,14692
2018-06-17T05:52:00.879Z,15584
2018-06-17T05:53:02.253Z,16796
2018-06-17T05:54:03.625Z,17632
2018-06-17T05:55:05.009Z,17440
2018-06-17T05:56:06.994Z,16644
2018-06-17T05:57:08.385Z,15892
2018-06-17T05:58:09.774Z,15464
2018-06-17T05:59:11.153Z,16012
2018-06-17T06:00:12.530Z,15416
2018-06-17T06:01:13.915Z,16424
2018-06-17T06:02:15.327Z,16764
2018-06-17T06:03:16.713Z,17176
2018-06-17T06:04:18.094Z,17524
2018-06-17T06:05:19.486Z,17516
2018-06-17T06:06:20.855Z,17564
2018-06-17T06:07:22.235Z,17960
2018-06-17T06:08:23.624Z,18664
2018-06-17T06:09:25.013Z,19392
2018-06-17T06:10:26.452Z,19712
2018-06-17T06:11:27.786Z,20064
2018-06-17T06:12:29.163Z,20832
2018-06-17T06:13:30.544Z,21632
2018-06-17T06:14:31.923Z,23168
2018-06-17T06:15:33.304Z,26656
2018-06-17T06:16:34.676Z,32224
2018-06-17T06:17:36.070Z,31712
2018-06-17T06:18:37.443Z,35968
2018-06-17T06:19:38.835Z,49056
2018-06-17T06:20:40.213Z,44704
2018-06-17T06:21:41.591Z,41024
2018-06-17T06:22:42.969Z,41984
2018-06-17T06:23:44.340Z,43008
2018-06-17T06:24:45.787Z,42208
2018-06-17T06:25:47.143Z,44544
2018-06-17T06:26:48.540Z,47200
2018-06-17T06:27:49.932Z,48256
2018-06-17T06:28:51.310Z,49632
2018-06-17T06:29:52.685Z,54688
2018-06-17T06:30:54.089Z,59360
2018-06-17T06:31:55.455Z,63552
2018-06-17T06:32:56.838Z,66336
2018-06-17T06:33:58.429Z,69248
2018-06-17T06:34:59.815Z,77440
2018-06-17T06:36:01.199Z,75296
2018-06-17T06:37:02.578Z,72992
2018-06-17T06:38:03.955Z,75488
2018-06-17T06:39:05.353Z,75104
2018-06-17T06:40:06.736Z,73504
2018-06-17T06:41:08.118Z,77280
2018-06-17T06:42:09.495Z,74240
2018-06-17T06:43:10.885Z,67104
2018-06-17T06:44:12.261Z,68000
2018-06-17T06:45:13.657Z,68000
2018-06-17T06:46:15.035Z,64960
2018-06-17T06:47:16.422Z,63360
2018-06-17T06:48:17.805Z,60096
2018-06-17T06:49:19.180Z,53440
2018-06-17T06:50:20.557Z,51552
2018-06-17T06:51:21.944Z,57184
2018-06-17T06:52:23.324Z,57376
2018-06-17T06:53:24.720Z,51776
2018-06-17T06:54:26.108Z,48512
2018-06-17T06:55:27.488Z,49280
2018-06-17T06:56:28.875Z,50496
2018-06-17T06:57:30.262Z,48928
2018-06-17T06:58:31.645Z,47232
2018-06-17T06:59:33.024Z,47648
2018-06-17T07:00:34.400Z,49248
2018-06-17T07:01:35.790Z,50816
2018-06-17T07:02:37.198Z,49760
2018-06-17T07:03:38.580Z,46816
2018-06-17T07:04:39.966Z,47680
2018-06-17T07:05:41.343Z,48960
2018-06-17T07:06:42.725Z,48128
2018-06-17T07:07:44.114Z,53344
2018-06-17T07:08:45.560Z,50976
2018-06-17T07:09:46.961Z,49888
2018-06-17T07:10:48.350Z,47232
2018-06-17T07:11:49.725Z,46560
2018-06-17T07:12:51.999Z,48960
2018-06-17T07:13:53.375Z,45248
2018-06-17T07:14:54.755Z,49696
2018-06-17T07:15:56.141Z,50560
2018-06-17T07:16:57.529Z,51168
2018-06-17T07:17:58.959Z,53280
2018-06-17T07:19:00.365Z,53088
2018-06-17T07:20:01.737Z,55680
2018-06-17T07:21:03.119Z,57504
2018-06-17T07:22:04.509Z,58880
2018-06-17T07:23:05.893Z,61728
2018-06-17T07:24:07.271Z,71616
2018-06-17T07:25:08.722Z,85888
2018-06-17T07:26:10.052Z,87392
2018-06-17T07:27:11.438Z,77856
2018-06-17T07:28:12.811Z,72192
2018-06-17T07:29:14.200Z,49408
2018-06-17T07:30:15.584Z,75232
2018-06-17T07:31:16.973Z,79200
2018-06-17T07:32:18.343Z,87840
2018-06-17T07:33:19.752Z,89344
2018-06-17T07:34:21.146Z,80640
2018-06-17T07:35:22.525Z,71744
2018-06-17T07:36:23.910Z,61664
2018-06-17T07:37:25.286Z,55264
2018-06-17T07:38:26.671Z,54432
2018-06-17T07:39:28.124Z,52192
2018-06-17T07:40:29.605Z,49600
2018-06-17T07:41:30.970Z,35840
2018-06-17T07:42:32.356Z,23008
2018-06-17T07:43:33.739Z,42976
2018-06-17T07:44:35.115Z,42176
2018-06-17T07:45:36.500Z,21504
2018-06-17T07:46:37.876Z,47008
2018-06-17T07:47:39.265Z,23936
2018-06-17T07:48:40.650Z,20864
2018-06-17T07:49:42.029Z,41344
2018-06-17T07:50:43.415Z,46944
2018-06-17T07:51:44.797Z,32000
2018-06-17T07:52:46.179Z,16960
2018-06-17T07:53:47.561Z,17776
2018-06-17T07:54:48.935Z,47136
2018-06-17T07:55:50.344Z,47488
2018-06-17T07:56:51.728Z,48768
2018-06-17T07:57:53.107Z,49440
2018-06-17T07:58:54.496Z,47136
2018-06-17T07:59:55.875Z,50400
2018-06-17T08:00:57.256Z,48768
2018-06-17T08:01:58.670Z,48576
2018-06-17T08:03:00.086Z,49344
2018-06-17T08:04:01.480Z,49952
2018-06-17T08:05:02.870Z,50080
2018-06-17T08:06:04.247Z,49280
2018-06-17T08:07:05.634Z,48832
2018-06-17T08:08:07.010Z,49440
2018-06-17T08:09:08.396Z,48736
2018-06-17T08:10:09.770Z,48192
2018-06-17T08:11:11.169Z,30560
2018-06-17T08:12:12.549Z,22048
2018-06-17T08:13:13.939Z,49376
2018-06-17T08:14:15.327Z,49280
2018-06-17T08:15:16.715Z,49600
2018-06-17T08:16:18.103Z,49376
2018-06-17T08:17:19.492Z,48768
2018-06-17T08:18:20.897Z,48096
2018-06-17T08:19:22.286Z,47808
2018-06-17T08:20:23.679Z,47744
2018-06-17T08:21:25.056Z,49152
2018-06-17T08:22:26.449Z,49120
2018-06-17T08:23:27.841Z,51104
2018-06-17T08:24:29.231Z,50784
2018-06-17T08:25:30.627Z,51840
2018-06-17T08:26:32.046Z,55136
2018-06-17T08:27:33.432Z,72960
2018-06-17T08:28:34.820Z,106752
2018-06-17T08:29:36.216Z,117984
2018-06-17T08:30:37.594Z,109920
2018-06-17T08:31:38.983Z,45376
2018-06-17T08:32:40.366Z,27456
2018-06-17T08:33:41.753Z,91776
2018-06-17T08:34:43.150Z,34240
2018-06-17T08:35:44.528Z,89408
2018-06-17T08:36:45.924Z,82272
2018-06-17T08:37:47.306Z,73600
2018-06-17T08:38:48.687Z,69600
2018-06-17T08:39:50.067Z,29408
2018-06-17T08:40:51.465Z,85888
2018-06-17T08:41:52.827Z,72576
2018-06-17T08:42:54.216Z,96928
2018-06-17T08:43:55.611Z,101312
2018-06-17T08:44:56.997Z,102816
2018-06-17T08:45:59.140Z,106144
2018-06-17T08:47:00.516Z,110496
2018-06-17T08:48:01.927Z,63136
2018-06-17T08:49:03.336Z,44416
2018-06-17T08:50:04.726Z,35168
2018-06-17T08:51:06.116Z,45056
2018-06-17T08:52:07.506Z,45856
2018-06-17T08:53:08.882Z,33184
2018-06-17T08:54:10.275Z,37824
2018-06-17T08:55:11.663Z,53056
2018-06-17T08:56:13.932Z,77312
2018-06-17T08:57:15.323Z,53312
2018-06-17T08:58:16.717Z,54720
2018-06-17T08:59:18.123Z,56928
2018-06-17T09:00:19.506Z,41856
2018-06-17T09:01:20.887Z,40672
2018-06-17T09:02:22.278Z,39552
2018-06-17T09:03:23.668Z,40096
2018-06-17T09:04:25.051Z,41536
2018-06-17T09:05:26.431Z,43552
2018-06-17T09:06:28.562Z,48160
2018-06-17T09:07:29.940Z,57088
2018-06-17T09:08:31.332Z,91104
2018-06-17T09:09:32.735Z,69248
2018-06-17T09:10:34.127Z,52704
2018-06-17T09:11:35.810Z,129280
2018-06-17T09:12:37.194Z,74464
2018-06-17T09:13:38.580Z,78528
2018-06-17T09:14:39.951Z,49664
2018-06-17T09:15:41.346Z,51232
2018-06-17T09:16:42.722Z,45632
2018-06-17T09:17:44.105Z,54656
2018-06-17T09:18:45.493Z,128480
2018-06-17T09:19:46.877Z,50304
2018-06-17T09:20:48.270Z,53440
2018-06-17T09:21:49.657Z,105952
2018-06-17T09:22:51.040Z,68512
2018-06-17T09:23:52.423Z,52320
2018-06-17T09:24:53.816Z,49536
2018-06-17T09:25:55.206Z,46528
2018-06-17T09:26:56.587Z,42976
2018-06-17T09:27:58.010Z,38560
2018-06-17T09:28:59.427Z,34656
2018-06-17T09:30:00.804Z,32256
2018-06-17T09:31:02.181Z,31296
2018-06-17T09:32:03.630Z,30688
2018-06-17T09:33:04.964Z,30272
2018-06-17T09:34:06.346Z,30944
2018-06-17T09:35:07.732Z,33152
2018-06-17T09:36:09.128Z,36704
2018-06-17T09:37:10.513Z,40480
2018-06-17T09:38:11.902Z,45216
2018-06-17T09:39:13.283Z,45408
2018-06-17T09:40:14.662Z,40448
2018-06-17T09:41:16.049Z,37728
2018-06-17T09:42:17.428Z,36448
2018-06-17T09:43:18.812Z,37024
2018-06-17T09:44:20.281Z,38144
2018-06-17T09:45:21.528Z,38624
2018-06-17T09:46:22.907Z,39008
2018-06-17T09:47:24.293Z,39520
2018-06-17T09:48:25.668Z,39424
2018-06-17T09:49:27.048Z,38336
2018-06-17T09:50:28.435Z,36896
2018-06-17T09:51:29.839Z,36064
2018-06-17T09:52:31.206Z,35808
2018-06-17T09:53:32.603Z,36000
2018-06-17T09:54:34.013Z,36192
2018-06-17T09:55:35.397Z,36832
2018-06-17T09:56:36.779Z,37952
2018-06-17T09:57:38.157Z,39648
2018-06-17T09:58:39.542Z,41184
2018-06-17T09:59:40.927Z,42272
2018-06-17T10:00:42.301Z,43072
2018-06-17T10:01:43.731Z,43904
2018-06-17T10:02:45.091Z,43424
2018-06-17T10:03:46.471Z,41504
2018-06-17T10:04:47.858Z,39552
2018-06-17T10:05:49.237Z,38208
2018-06-17T10:06:50.640Z,37216
2018-06-17T10:07:52.012Z,36032
2018-06-17T10:08:53.440Z,36032
2018-06-17T10:09:54.773Z,39328
2018-06-17T10:10:56.157Z,44864
2018-06-17T10:11:57.546Z,47008
2018-06-17T10:12:58.919Z,49536
2018-06-17T10:14:00.312Z,52928
2018-06-17T10:15:01.701Z,55648
2018-06-17T10:16:03.094Z,62464
2018-06-17T10:17:04.438Z,59456
2018-06-17T10:18:05.813Z,54976
2018-06-17T10:19:07.197Z,45216
2018-06-17T10:20:08.583Z,47040
2018-06-17T10:21:09.966Z,47200
2018-06-17T10:22:11.343Z,47168
2018-06-17T10:23:12.720Z,77312
2018-06-17T10:24:14.124Z,86688
2018-06-17T10:25:15.533Z,125728
2018-06-17T10:26:16.928Z,95936
2018-06-17T10:27:18.303Z,84960
2018-06-17T10:28:19.686Z,76032
2018-06-17T10:29:21.111Z,104416
2018-06-17T10:30:22.432Z,85344
2018-06-17T10:31:23.816Z,61216
2018-06-17T10:32:25.198Z,57248
2018-06-17T10:33:26.576Z,110880
2018-06-17T10:34:28.672Z,74944
2018-06-17T10:35:30.055Z,85344
2018-06-17T10:36:31.443Z,126368
2018-06-17T10:37:32.823Z,115776
2018-06-17T10:38:34.206Z,70688
2018-06-17T10:39:35.798Z,58944
2018-06-17T10:40:37.198Z,54496
2018-06-17T10:41:38.577Z,58496
2018-06-17T10:42:39.973Z,54112
2018-06-17T10:43:41.357Z,68000
2018-06-17T10:44:42.738Z,38048
2018-06-17T10:45:44.127Z,33728
2018-06-17T10:46:45.517Z,31040
2018-06-17T10:47:46.924Z,29632
2018-06-17T10:48:48.362Z,28576
2018-06-17T10:49:49.702Z,28128
2018-06-17T10:50:51.083Z,28480
2018-06-17T10:51:52.464Z,28896
2018-06-17T10:52:53.839Z,28960
2018-06-17T10:53:55.213Z,28544
2018-06-17T10:54:56.594Z,27680
2018-06-17T10:55:58.154Z,26336
2018-06-17T10:56:59.377Z,25824
2018-06-17T10:58:00.777Z,27008
2018-06-17T10:59:02.157Z,29664
2018-06-17T11:00:03.543Z,33120
2018-06-17T11:01:04.935Z,36960
2018-06-17T11:02:06.312Z,43840
2018-06-17T11:03:07.689Z,49024
2018-06-17T11:04:09.087Z,58112
2018-06-17T11:05:10.483Z,56128
2018-06-17T11:06:11.859Z,47616
2018-06-17T11:07:13.243Z,46368
2018-06-17T11:08:14.632Z,47584
2018-06-17T11:09:16.002Z,59936
2018-06-17T11:10:17.392Z,62016
2018-06-17T11:11:18.774Z,82944
2018-06-17T11:12:20.164Z,76416
2018-06-17T11:13:21.615Z,67360
2018-06-17T11:14:22.929Z,96640
2018-06-17T11:15:24.313Z,83296
2018-06-17T11:16:25.714Z,69024
2018-06-17T11:17:27.096Z,57408
2018-06-17T11:18:28.485Z,58240
2018-06-17T11:19:29.883Z,57184
2018-06-17T11:20:31.303Z,54144
2018-06-17T11:21:32.690Z,50176
2018-06-17T11:22:34.082Z,49888
2018-06-17T11:23:35.469Z,51520
2018-06-17T11:24:36.849Z,54080
2018-06-17T11:25:38.239Z,49152
2018-06-17T11:26:39.680Z,48864
2018-06-17T11:27:40.964Z,45344
2018-06-17T11:28:42.345Z,45824
2018-06-17T11:29:43.748Z,47168
2018-06-17T11:30:45.124Z,48800
2018-06-17T11:31:46.505Z,50528
2018-06-17T11:32:47.898Z,52384
2018-06-17T11:33:49.287Z,55136
2018-06-17T11:34:50.666Z,60064
2018-06-17T11:35:52.050Z,66816
2018-06-17T11:36:53.447Z,71200
2018-06-17T11:37:54.814Z,69472
2018-06-17T11:38:56.235Z,73728
2018-06-17T11:39:57.594Z,73216
2018-06-17T11:40:58.990Z,116576
2018-06-17T11:42:00.420Z,57632
2018-06-17T11:43:01.815Z,56512
2018-06-17T11:44:03.189Z,69888
2018-06-17T11:45:04.575Z,92352
2018-06-17T11:46:05.991Z,74912
2018-06-17T11:47:07.413Z,61184
2018-06-17T11:48:08.805Z,71648
2018-06-17T11:49:10.213Z,71392
2018-06-17T11:50:11.595Z,78656
2018-06-17T11:51:13.009Z,83648
2018-06-17T11:52:14.399Z,77696
2018-06-17T11:53:15.779Z,40608
2018-06-17T11:54:17.173Z,36480
2018-06-17T11:55:18.543Z,36032
2018-06-17T11:56:19.968Z,35872
2018-06-17T11:57:21.347Z,35776
2018-06-17T11:58:22.752Z,36864
2018-06-17T11:59:24.169Z,37856
2018-06-17T12:00:25.559Z,38176
2018-06-17T12:01:26.949Z,37952
2018-06-17T12:02:28.473Z,37280
2018-06-17T12:03:29.867Z,36576
2018-06-17T12:04:31.255Z,35808
2018-06-17T12:05:32.641Z,34400
2018-06-17T12:06:34.035Z,32768
2018-06-17T12:07:35.419Z,31456
2018-06-17T12:08:36.807Z,30368
2018-06-17T12:09:38.193Z,29472
2018-06-17T12:10:39.578Z,28960
2018-06-17T12:11:40.961Z,29120
2018-06-17T12:12:42.333Z,29696
2018-06-17T12:13:43.712Z,31744
2018-06-17T12:14:45.126Z,34112
2018-06-17T12:15:46.484Z,36224
2018-06-17T12:16:47.873Z,38496
2018-06-17T12:17:49.248Z,41792
2018-06-17T12:18:50.636Z,46176
2018-06-17T12:19:52.014Z,50112
2018-06-17T12:20:53.393Z,54112
2018-06-17T12:21:54.768Z,61824
2018-06-17T12:22:56.151Z,61472
2018-06-17T12:23:57.542Z,59296
2018-06-17T12:24:58.943Z,56000
2018-06-17T12:26:00.321Z,57536
2018-06-17T12:27:01.731Z,57248
2018-06-17T12:28:03.109Z,60416
2018-06-17T12:29:04.503Z,55840
2018-06-17T12:30:05.874Z,52992
2018-06-17T12:31:07.254Z,49696
2018-06-17T12:32:08.639Z,44704
2018-06-17T12:33:10.024Z,44544
2018-06-17T12:34:11.418Z,41504
2018-06-17T12:35:12.794Z,41792
2018-06-17T12:36:14.181Z,41792
2018-06-17T12:37:15.556Z,43104
2018-06-17T12:38:16.929Z,44288
2018-06-17T12:39:18.324Z,47488
2018-06-17T12:40:19.705Z,48896
2018-06-17T12:41:21.107Z,49760
2018-06-17T12:42:22.480Z,49344
2018-06-17T12:43:23.866Z,48896
2018-06-17T12:44:25.254Z,47424
2018-06-17T12:45:26.635Z,45792
2018-06-17T12:46:28.081Z,44256
2018-06-17T12:47:29.460Z,43936
2018-06-17T12:48:30.860Z,42144
2018-06-17T12:49:32.238Z,41408
2018-06-17T12:50:33.694Z,40864
2018-06-17T12:51:34.962Z,40128
2018-06-17T12:52:36.356Z,39264
2018-06-17T12:53:37.729Z,39744
2018-06-17T12:54:39.105Z,43488
2018-06-17T12:55:40.504Z,43392
2018-06-17T12:56:41.890Z,42592
2018-06-17T12:57:43.292Z,41536
2018-06-17T12:58:44.657Z,40448
2018-06-17T12:59:46.035Z,38976
2018-06-17T13:00:47.424Z,36544
2018-06-17T13:01:48.801Z,34464
2018-06-17T13:02:50.180Z,33728
2018-06-17T13:03:51.661Z,34944
2018-06-17T13:04:53.039Z,38144
2018-06-17T13:05:54.424Z,42464
2018-06-17T13:06:55.804Z,43776
2018-06-17T13:07:58.945Z,45248
2018-06-17T13:09:00.925Z,48032
2018-06-17T13:10:02.309Z,49984
2018-06-17T13:11:04.530Z,51520
2018-06-17T13:12:05.085Z,76448
2018-06-17T13:13:06.471Z,57216
2018-06-17T13:14:07.856Z,58208
2018-06-17T13:15:09.241Z,60640
2018-06-17T13:16:28.725Z,68096
2018-06-17T13:17:58.701Z,72320
2018-06-17T13:19:00.095Z,78208
2018-06-17T13:20:01.474Z,63072
2018-06-17T13:21:02.850Z,53952
2018-06-17T13:22:04.231Z,55584
2018-06-17T13:23:05.611Z,72288
2018-06-17T13:24:07.013Z,48864
2018-06-17T13:25:08.395Z,45280
2018-06-17T13:26:09.774Z,44544
2018-06-17T13:27:11.165Z,48288
2018-06-17T13:28:12.533Z,45536
2018-06-17T13:29:13.923Z,42784
2018-06-17T13:30:15.306Z,44832
2018-06-17T13:31:16.695Z,67424
2018-06-17T13:32:18.084Z,51840
2018-06-17T13:33:19.450Z,53600
2018-06-17T13:34:20.832Z,58528
2018-06-17T13:35:22.260Z,49120
2018-06-17T13:36:23.601Z,46816
2018-06-17T13:37:24.986Z,48640
2018-06-17T13:38:26.369Z,51456